Time,TemperatureF,DewpointF,PressureIn,WindDirection,WindDirectionDegrees,WindSpeedMPH,WindSpeedGustMPH,Humidity,HourlyPrecipIn,Conditions,Clouds,dailyrainin,SoftwareType,DateUTC
2013-10-08 00:12:00,60.4,52.0,29.98,West,279,0.0,2.0,75,0.00,,,0.25,weatherlink.com 1.10,2013-10-08 04:12:00,
2013-10-08 00:27:00,59.9,52.0,29.99,West,263,0.0,8.0,74,0.00,,,0.25,weatherlink.com 1.10,2013-10-08 04:27:00,
2013-10-08 00:42:00,59.4,51.0,29.99,WNW,301,1.0,3.0,74,0.00,,,0.00,weatherlink.com 1.10,2013-10-08 04:42:00,
2013-10-08 00:56:00,59.0,50.0,29.99,West,269,0.0,5.0,73,0.00,,,0.00,weatherlink.com 1.10,2013-10-08 04:56:00,
2013-10-08 01:11:00,58.7,50.0,30.00,West,267,0.0,2.0,72,0.00,,,0.00,weatherlink.com 1.10,2013-10-08 05:11:00,
2013-10-08 01:26:00,58.2,49.0,30.01,WNW,290,0.0,3.0,72,0.00,,,0.00,weatherlink.com 1.10,2013-10-08 05:26:00,
2013-10-08 01:41:00,58.0,49.0,30.02,West,278,0.0,4.0,72,0.00,,,0.00,weatherlink.com 1.10,2013-10-08 05:41:00,
2013-10-08 01:56:00,57.6,49.0,30.03,WNW,297,0.0,2.0,72,0.00,,,0.00,weatherlink.com 1.10,2013-10-08 05:56:00,
2013-10-08 02:11:00,57.2,49.0,30.03,WNW,282,0.0,2.0,73,0.00,,,0.00,weatherlink.com 1.10,2013-10-08 06:11:00,
2013-10-08 02:27:00,56.7,48.0,30.03,WSW,245,1.0,4.0,72,0.00,,,0.00,weatherlink.com 1.10,2013-10-08 06:27:00,
2013-10-08 02:42:00,56.8,48.0,30.03,WSW,239,0.0,2.0,72,0.00,,,0.00,weatherlink.com 1.10,2013-10-08 06:42:00,
2013-10-08 02:57:00,56.8,47.0,30.04,West,271,0.0,1.0,71,0.00,,,0.00,weatherlink.com 1.10,2013-10-08 06:57:00,
2013-10-08 03:12:00,55.9,48.0,30.04,West,266,0.0,2.0,74,0.00,,,0.00,weatherlink.com 1.10,2013-10-08 07:12:00,
2013-10-08 03:27:00,55.8,48.0,30.05,WNW,298,0.0,1.0,75,0.00,,,0.00,weatherlink.com 1.10,2013-10-08 07:27:00,
2013-10-08 03:42:00,55.3,48.0,30.05,West,266,0.0,2.0,75,0.00,,,0.00,weatherlink.com 1.10,2013-10-08 07:42:00,
2013-10-08 03:57:00,54.4,47.0,30.06,NE,51,0.0,1.0,77,0.00,,,0.00,weatherlink.com 1.10,2013-10-08 07:57:00,
2013-10-08 04:12:00,54.4,47.0,30.07,NNE,15,1.0,2.0,77,0.00,,,0.00,weatherlink.com 1.10,2013-10-08 08:12:00,
2013-10-08 04:27:00,54.7,47.0,30.07,NNW,331,0.0,2.0,75,0.00,,,0.00,weatherlink.com 1.10,2013-10-08 08:27:00,
2013-10-08 04:42:00,55.2,47.0,30.07,WNW,285,0.0,3.0,74,0.00,,,0.00,weatherlink.com 1.10,2013-10-08 08:42:00,
2013-10-08 04:57:00,55.3,47.0,30.08,WNW,295,0.0,3.0,74,0.00,,,0.00,weatherlink.com 1.10,2013-10-08 08:57:00,
2013-10-08 05:12:00,55.0,47.0,30.09,ENE,59,0.0,2.0,74,0.00,,,0.00,weatherlink.com 1.10,2013-10-08 09:12:00,
2013-10-08 05:27:00,55.0,47.0,30.09,WSW,246,3.0,4.0,74,0.00,,,0.00,weatherlink.com 1.10,2013-10-08 09:27:00,
2013-10-08 05:42:00,55.1,47.0,30.10,NNE,22,0.0,4.0,74,0.00,,,0.00,weatherlink.com 1.10,2013-10-08 09:42:00,
2013-10-08 05:57:00,55.1,47.0,30.11,ENE,57,0.0,3.0,74,0.00,,,0.00,weatherlink.com 1.10,2013-10-08 09:57:00,
2013-10-08 06:12:00,54.9,47.0,30.11,NW,309,0.0,6.0,74,0.00,,,0.00,weatherlink.com 1.10,2013-10-08 10:12:00,
2013-10-08 06:27:00,54.5,47.0,30.12,ENE,70,1.0,4.0,75,0.00,,,0.00,weatherlink.com 1.10,2013-10-08 10:27:00,
2013-10-08 06:42:00,54.0,47.0,30.13,East,86,0.0,3.0,77,0.00,,,0.00,weatherlink.com 1.10,2013-10-08 10:42:00,
2013-10-08 06:57:00,53.6,47.0,30.13,NW,315,1.0,3.0,79,0.00,,,0.00,weatherlink.com 1.10,2013-10-08 10:57:00,
2013-10-08 07:12:00,53.1,47.0,30.15,NNW,327,0.0,2.0,80,0.00,,,0.00,weatherlink.com 1.10,2013-10-08 11:12:00,
2013-10-08 07:27:00,52.9,48.0,30.15,NNW,327,0.0,2.0,82,0.00,,,0.00,weatherlink.com 1.10,2013-10-08 11:27:00,
2013-10-08 07:42:00,53.3,48.0,30.16,NNE,26,2.0,2.0,82,0.00,,,0.00,weatherlink.com 1.10,2013-10-08 11:42:00,
2013-10-08 07:57:00,54.2,48.0,30.17,ENE,64,0.0,2.0,80,0.00,,,0.00,weatherlink.com 1.10,2013-10-08 11:57:00,
2013-10-08 08:12:00,55.8,48.0,30.18,NW,315,1.0,3.0,76,0.00,,,0.00,weatherlink.com 1.10,2013-10-08 12:12:00,
2013-10-08 08:28:00,57.4,49.0,30.20,North,353,0.0,3.0,74,0.00,,,0.00,weatherlink.com 1.10,2013-10-08 12:28:00,
2013-10-08 08:43:00,58.7,50.0,30.21,WSW,249,0.0,2.0,72,0.00,,,0.00,weatherlink.com 1.10,2013-10-08 12:43:00,
2013-10-08 08:58:00,59.2,49.0,30.21,ENE,62,2.0,5.0,70,0.00,,,0.00,weatherlink.com 1.10,2013-10-08 12:58:00,
2013-10-08 09:13:00,59.3,48.0,30.21,ESE,117,1.0,6.0,67,0.00,,,0.00,weatherlink.com 1.10,2013-10-08 13:13:00,
2013-10-08 09:28:00,59.5,48.0,30.22,NNW,331,2.0,6.0,67,0.00,,,0.00,weatherlink.com 1.10,2013-10-08 13:28:00,
2013-10-08 09:43:00,60.6,47.0,30.22,NE,42,1.0,8.0,61,0.00,,,0.00,weatherlink.com 1.10,2013-10-08 13:43:00,
2013-10-08 09:58:00,61.5,47.0,30.23,ENE,68,4.0,6.0,60,0.00,,,0.00,weatherlink.com 1.10,2013-10-08 13:58:00,
2013-10-08 10:13:00,61.3,48.0,30.23,West,277,0.0,7.0,61,0.00,,,0.00,weatherlink.com 1.10,2013-10-08 14:13:00,
2013-10-08 10:28:00,61.2,46.0,30.23,ENE,62,3.0,9.0,58,0.00,,,0.00,weatherlink.com 1.10,2013-10-08 14:28:00,
2013-10-08 10:43:00,62.2,47.0,30.23,West,262,6.0,7.0,57,0.00,,,0.00,weatherlink.com 1.10,2013-10-08 14:43:00,
2013-10-08 10:58:00,62.3,47.0,30.23,NNE,19,4.0,9.0,57,0.00,,,0.00,weatherlink.com 1.10,2013-10-08 14:58:00,
2013-10-08 11:13:00,62.6,47.0,30.23,NW,306,1.0,6.0,57,0.00,,,0.00,weatherlink.com 1.10,2013-10-08 15:13:00,
2013-10-08 11:28:00,63.0,46.0,30.23,East,89,4.0,7.0,55,0.00,,,0.00,weatherlink.com 1.10,2013-10-08 15:28:00,
2013-10-08 11:43:00,62.6,46.0,30.23,East,85,3.0,10.0,54,0.00,,,0.00,weatherlink.com 1.10,2013-10-08 15:43:00,
2013-10-08 11:58:00,62.9,46.0,30.23,East,81,0.0,8.0,55,0.00,,,0.00,weatherlink.com 1.10,2013-10-08 15:58:00,
2013-10-08 12:13:00,63.3,46.0,30.23,NNE,15,3.0,6.0,54,0.00,,,0.00,weatherlink.com 1.10,2013-10-08 16:13:00,
2013-10-08 12:28:00,63.5,44.0,30.22,West,260,4.0,8.0,49,0.00,,,0.00,weatherlink.com 1.10,2013-10-08 16:28:00,
2013-10-08 12:43:00,63.6,44.0,30.21,NW,320,2.0,8.0,50,0.00,,,0.00,weatherlink.com 1.10,2013-10-08 16:43:00,
2013-10-08 12:58:00,64.0,45.0,30.21,ENE,68,6.0,7.0,50,0.00,,,0.00,weatherlink.com 1.10,2013-10-08 16:58:00,
2013-10-08 13:13:00,64.5,44.0,30.21,WNW,283,3.0,9.0,48,0.00,,,0.00,weatherlink.com 1.10,2013-10-08 17:13:00,
2013-10-08 13:28:00,64.7,44.0,30.21,WSW,238,1.0,10.0,47,0.00,,,0.00,weatherlink.com 1.10,2013-10-08 17:28:00,
2013-10-08 13:43:00,64.9,43.0,30.21,ENE,69,2.0,11.0,46,0.00,,,0.00,weatherlink.com 1.10,2013-10-08 17:43:00,
2013-10-08 13:58:00,65.1,44.0,30.21,NW,304,2.0,6.0,47,0.00,,,0.00,weatherlink.com 1.10,2013-10-08 17:58:00,
2013-10-08 14:13:00,65.5,44.0,30.20,WNW,285,6.0,9.0,46,0.00,,,0.00,weatherlink.com 1.10,2013-10-08 18:13:00,
2013-10-08 14:28:00,65.5,43.0,30.21,NNW,346,1.0,9.0,45,0.00,,,0.00,weatherlink.com 1.10,2013-10-08 18:28:00,
2013-10-08 14:43:00,65.7,45.0,30.21,NE,34,4.0,6.0,47,0.00,,,0.00,weatherlink.com 1.10,2013-10-08 18:43:00,
2013-10-08 14:58:00,65.7,44.0,30.21,SW,218,1.0,9.0,45,0.00,,,0.00,weatherlink.com 1.10,2013-10-08 18:58:00,
2013-10-08 15:13:00,65.9,43.0,30.22,ENE,74,2.0,9.0,44,0.00,,,0.00,weatherlink.com 1.10,2013-10-08 19:13:00,
2013-10-08 15:28:00,65.8,43.0,30.22,NNE,29,5.0,9.0,44,0.00,,,0.00,weatherlink.com 1.10,2013-10-08 19:28:00,
2013-10-08 15:43:00,66.1,44.0,30.22,East,82,2.0,8.0,45,0.00,,,0.00,weatherlink.com 1.10,2013-10-08 19:43:00,
2013-10-08 15:58:00,65.9,44.0,30.22,ENE,75,3.0,7.0,46,0.00,,,0.00,weatherlink.com 1.10,2013-10-08 19:58:00,
2013-10-08 16:13:00,65.6,44.0,30.22,ENE,68,2.0,6.0,45,0.00,,,0.00,weatherlink.com 1.10,2013-10-08 20:13:00,
2013-10-08 16:28:00,65.2,43.0,30.22,East,91,2.0,7.0,45,0.00,,,0.00,weatherlink.com 1.10,2013-10-08 20:28:00,
2013-10-08 16:43:00,64.4,44.0,30.22,WNW,301,3.0,6.0,47,0.00,,,0.00,weatherlink.com 1.10,2013-10-08 20:43:00,
2013-10-08 16:58:00,64.1,44.0,30.22,ENE,64,2.0,4.0,48,0.00,,,0.00,weatherlink.com 1.10,2013-10-08 20:58:00,
2013-10-08 17:13:00,63.8,44.0,30.23,NNW,335,0.0,6.0,48,0.00,,,0.00,weatherlink.com 1.10,2013-10-08 21:13:00,
2013-10-08 17:28:00,63.5,43.0,30.23,NNE,33,4.0,6.0,48,0.00,,,0.00,weatherlink.com 1.10,2013-10-08 21:28:00,
2013-10-08 17:43:00,63.2,44.0,30.24,NNE,12,2.0,5.0,49,0.00,,,0.00,weatherlink.com 1.10,2013-10-08 21:43:00,
2013-10-08 17:58:00,62.7,43.0,30.25,ENE,68,2.0,5.0,49,0.00,,,0.00,weatherlink.com 1.10,2013-10-08 21:58:00,
2013-10-08 18:13:00,62.1,44.0,30.25,NNE,12,3.0,4.0,51,0.00,,,0.00,weatherlink.com 1.10,2013-10-08 22:13:00,
2013-10-08 18:28:00,61.5,43.0,30.25,East,80,0.0,5.0,51,0.00,,,0.00,weatherlink.com 1.10,2013-10-08 22:28:00,
2013-10-08 18:43:00,61.0,43.0,30.26,NE,44,0.0,3.0,52,0.00,,,0.00,weatherlink.com 1.10,2013-10-08 22:43:00,
2013-10-08 18:59:00,60.2,44.0,30.26,NW,317,0.0,3.0,55,0.00,,,0.00,weatherlink.com 1.10,2013-10-08 22:59:00,
2013-10-08 19:14:00,59.9,43.0,30.26,ENE,57,0.0,4.0,55,0.00,,,0.00,weatherlink.com 1.10,2013-10-08 23:14:00,
2013-10-08 19:29:00,59.9,43.0,30.27,WNW,302,1.0,3.0,55,0.00,,,0.00,weatherlink.com 1.10,2013-10-08 23:29:00,
2013-10-08 19:44:00,59.1,43.0,30.27,NNE,32,0.0,3.0,56,0.00,,,0.00,weatherlink.com 1.10,2013-10-08 23:44:00,
2013-10-08 19:59:00,59.1,44.0,30.27,NW,321,1.0,3.0,57,0.00,,,0.00,weatherlink.com 1.10,2013-10-08 23:59:00,
2013-10-08 20:14:00,58.6,44.0,30.27,NNE,13,0.0,2.0,59,0.00,,,0.00,weatherlink.com 1.10,2013-10-09 00:14:00,
2013-10-08 20:29:00,58.2,44.0,30.27,ESE,103,0.0,1.0,60,0.00,,,0.00,weatherlink.com 1.10,2013-10-09 00:29:00,
2013-10-08 20:44:00,58.0,44.0,30.28,NE,40,1.0,2.0,61,0.00,,,0.00,weatherlink.com 1.10,2013-10-09 00:44:00,
2013-10-08 20:59:00,57.5,45.0,30.29,NW,312,0.0,2.0,63,0.00,,,0.00,weatherlink.com 1.10,2013-10-09 00:59:00,
2013-10-08 21:14:00,56.9,45.0,30.29,NNE,33,0.0,0.0,65,0.00,,,0.00,weatherlink.com 1.10,2013-10-09 01:14:00,
2013-10-08 21:29:00,56.4,45.0,30.30,NW,320,0.0,2.0,66,0.00,,,0.00,weatherlink.com 1.10,2013-10-09 01:29:00,
2013-10-08 21:44:00,56.3,45.0,30.30,NNE,20,0.0,1.0,67,0.00,,,0.00,weatherlink.com 1.10,2013-10-09 01:44:00,
2013-10-08 21:59:00,56.0,46.0,30.30,NNW,340,1.0,2.0,69,0.00,,,0.00,weatherlink.com 1.10,2013-10-09 01:59:00,
2013-10-08 22:14:00,56.0,46.0,30.31,NNW,328,0.0,3.0,69,0.00,,,0.00,weatherlink.com 1.10,2013-10-09 02:14:00,
2013-10-08 22:29:00,56.1,46.0,30.31,NE,41,2.0,2.0,70,0.00,,,0.00,weatherlink.com 1.10,2013-10-09 02:29:00,
2013-10-08 22:44:00,56.3,47.0,30.31,WNW,298,0.0,2.0,70,0.00,,,0.00,weatherlink.com 1.10,2013-10-09 02:44:00,
2013-10-08 22:59:00,56.1,46.0,30.31,NW,318,1.0,2.0,70,0.00,,,0.00,weatherlink.com 1.10,2013-10-09 02:59:00,
2013-10-08 23:14:00,55.9,47.0,30.31,NNE,20,0.0,3.0,71,0.00,,,0.00,weatherlink.com 1.10,2013-10-09 03:14:00,
2013-10-08 23:29:00,56.1,46.0,30.31,WSW,257,2.0,3.0,70,0.00,,,0.00,weatherlink.com 1.10,2013-10-09 03:29:00,
2013-10-08 23:44:00,56.1,46.0,30.31,NNW,338,0.0,3.0,70,0.00,,,0.00,weatherlink.com 1.10,2013-10-09 03:44:00,
2013-10-08 23:59:00,55.8,47.0,30.31,ENE,61,0.0,3.0,71,0.00,,,0.00,weatherlink.com 1.10,2013-10-09 03:59:00,